createdAt,value
2018-09-23T00:03:45.006Z,11.90
2018-09-23T00:08:48.512Z,12.10
2018-09-23T00:13:52.228Z,12.10
2018-09-23T00:18:55.814Z,11.80
2018-09-23T00:23:59.418Z,11.60
2018-09-23T00:29:03.123Z,11.70
2018-09-23T00:34:06.871Z,11.80
2018-09-23T00:39:12.513Z,11.60
2018-09-23T00:44:16.182Z,11.50
2018-09-23T00:49:21.850Z,11.70
2018-09-23T00:54:27.718Z,11.70
2018-09-23T00:59:32.596Z,11.50
2018-09-23T01:04:36.254Z,11.80
2018-09-23T01:09:39.834Z,12.10
2018-09-23T01:14:56.032Z,12.00
2018-09-23T01:20:07.082Z,12.30
2018-09-23T01:25:10.917Z,12.40
2018-09-23T01:30:14.501Z,11.50
2018-09-23T01:35:18.296Z,11.20
2018-09-23T01:40:24.854Z,11.60
2018-09-23T01:45:28.638Z,11.40
2018-09-23T01:50:37.018Z,11.30
2018-09-23T01:55:40.900Z,11.10
2018-09-23T02:00:44.636Z,11.10
2018-09-23T02:05:48.283Z,11.10
2018-09-23T02:10:51.928Z,10.90
2018-09-23T02:15:55.796Z,10.90
2018-09-23T02:20:59.483Z,10.90
2018-09-23T02:26:03.267Z,10.90
2018-09-23T02:31:07.160Z,11.10
2018-09-23T02:36:11.842Z,11.00
2018-09-23T02:41:15.485Z,10.90
2018-09-23T02:46:37.123Z,11.00
2018-09-23T02:51:40.747Z,11.10
2018-09-23T02:56:52.751Z,10.90
2018-09-23T03:01:56.402Z,10.80
2018-09-23T03:07:03.676Z,10.90
2018-09-23T03:12:07.327Z,11.20
2018-09-23T03:17:16.534Z,11.00
2018-09-23T03:22:20.103Z,11.80
2018-09-23T03:27:23.749Z,12.00
2018-09-23T03:32:27.294Z,11.90
2018-09-23T03:37:31.082Z,11.70
2018-09-23T03:42:34.673Z,11.80
2018-09-23T03:47:38.345Z,12.00
2018-09-23T03:52:41.878Z,12.00
2018-09-23T03:57:45.482Z,12.40
2018-09-23T04:02:49.052Z,11.60
2018-09-23T04:07:52.734Z,11.30
2018-09-23T04:12:56.304Z,11.50
2018-09-23T04:18:00.000Z,11.60
2018-09-23T04:23:03.613Z,11.90
2018-09-23T04:28:07.194Z,11.80
2018-09-23T04:33:10.743Z,11.30
2018-09-23T04:38:14.300Z,11.80
2018-09-23T04:43:17.854Z,11.80
2018-09-23T04:48:21.419Z,12.00
2018-09-23T04:53:25.062Z,12.00
2018-09-23T04:58:28.619Z,12.00
2018-09-23T05:03:36.210Z,11.70
2018-09-23T05:08:39.736Z,11.80
2018-09-23T05:13:43.754Z,11.70
2018-09-23T05:18:47.387Z,11.60
2018-09-23T05:23:50.942Z,11.60
2018-09-23T05:28:54.668Z,11.70
2018-09-23T05:33:58.335Z,11.80
2018-09-23T05:39:01.896Z,11.60
2018-09-23T05:44:10.558Z,11.70
2018-09-23T05:49:14.931Z,11.80
2018-09-23T05:54:19.508Z,12.00
2018-09-23T05:59:23.030Z,11.50
2018-09-23T06:04:26.645Z,11.80
2018-09-23T06:09:30.210Z,11.80
2018-09-23T06:14:33.899Z,11.70
2018-09-23T06:19:38.657Z,11.50
2018-09-23T06:24:42.178Z,11.80
2018-09-23T06:29:45.890Z,11.80
2018-09-23T06:34:49.487Z,11.80
2018-09-23T06:39:53.105Z,12.00
2018-09-23T06:44:56.707Z,11.90
2018-09-23T06:50:00.298Z,12.00
2018-09-23T06:55:03.902Z,12.20
2018-09-23T07:00:07.515Z,12.10
2018-09-23T07:05:11.041Z,12.20
2018-09-23T07:10:15.771Z,12.40
2018-09-23T07:15:19.291Z,12.50
2018-09-23T07:20:23.160Z,12.50
2018-09-23T07:25:26.843Z,12.70
2018-09-23T07:30:30.519Z,12.50
2018-09-23T07:35:36.346Z,12.50
2018-09-23T07:40:40.010Z,12.50
2018-09-23T07:45:48.091Z,13.00
2018-09-23T07:50:55.607Z,12.90
2018-09-23T07:55:59.213Z,12.80
2018-09-23T08:01:02.861Z,13.20
2018-09-23T08:06:07.968Z,13.40
2018-09-23T08:11:11.683Z,13.50
2018-09-23T08:16:15.526Z,13.10
2018-09-23T08:21:23.201Z,13.00
2018-09-23T08:26:27.055Z,13.00
2018-09-23T08:31:30.734Z,13.10
2018-09-23T08:36:36.019Z,13.00
2018-09-23T08:41:39.878Z,13.00
2018-09-23T08:46:43.536Z,13.00
2018-09-23T08:51:47.182Z,13.50
2018-09-23T08:56:50.758Z,13.30
2018-09-23T09:01:54.494Z,13.40
2018-09-23T09:07:01.811Z,13.40
2018-09-23T09:12:09.712Z,13.30
2018-09-23T09:17:15.859Z,13.40
2018-09-23T09:22:25.290Z,13.60
2018-09-23T09:27:32.657Z,13.50
2018-09-23T09:32:39.848Z,13.50
2018-09-23T09:37:44.112Z,13.50
2018-09-23T09:42:49.096Z,13.60
2018-09-23T09:47:54.611Z,13.70
2018-09-23T09:53:00.022Z,13.70
2018-09-23T09:58:04.207Z,13.90
2018-09-23T10:03:11.740Z,13.90
2018-09-23T10:08:16.775Z,13.80
2018-09-23T10:13:21.182Z,13.80
2018-09-23T10:18:28.235Z,13.80
2018-09-23T10:23:33.304Z,13.90
2018-09-23T10:28:39.037Z,14.00
2018-09-23T10:33:43.008Z,14.00
2018-09-23T10:38:47.051Z,13.90
2018-09-23T10:43:51.150Z,14.30
2018-09-23T10:48:56.583Z,14.30
2018-09-23T10:54:01.758Z,14.60
2018-09-23T10:59:07.055Z,14.80
2018-09-23T11:04:13.113Z,14.40
2018-09-23T11:09:16.820Z,14.30
2018-09-23T11:14:20.447Z,14.40
2018-09-23T11:19:24.230Z,14.40
2018-09-23T11:24:27.978Z,14.50
2018-09-23T11:29:32.794Z,14.60
2018-09-23T11:34:39.653Z,14.60
2018-09-23T11:39:44.151Z,14.60
2018-09-23T11:44:48.083Z,14.80
2018-09-23T11:49:51.811Z,14.40
2018-09-23T11:54:55.776Z,14.50
2018-09-23T11:59:59.976Z,14.50
2018-09-23T12:05:18.968Z,14.80
2018-09-23T12:10:31.259Z,15.10
2018-09-23T12:15:35.095Z,15.40
2018-09-23T12:20:38.642Z,16.10
2018-09-23T12:25:50.620Z,16.50
2018-09-23T12:31:00.055Z,17.10
2018-09-23T12:36:05.409Z,17.30
2018-09-23T12:41:10.117Z,17.50
2018-09-23T12:46:14.101Z,17.70
2018-09-23T12:51:19.663Z,17.70
2018-09-23T12:56:25.027Z,17.80
2018-09-23T13:01:28.835Z,17.90
2018-09-23T13:06:32.703Z,18.00
2018-09-23T13:11:36.925Z,18.00
2018-09-23T13:16:41.680Z,17.90
2018-09-23T13:21:46.559Z,17.70
2018-09-23T13:26:50.286Z,17.20
2018-09-23T13:31:54.950Z,16.90
2018-09-23T13:37:00.099Z,16.70
2018-09-23T13:42:05.040Z,16.50
2018-09-23T13:47:11.034Z,16.50
2018-09-23T13:52:16.874Z,16.40
2018-09-23T13:57:21.605Z,15.90
2018-09-23T14:02:25.482Z,16.00
2018-09-23T14:07:30.338Z,16.00
2018-09-23T14:12:37.257Z,15.50
2018-09-23T14:17:41.097Z,15.80
2018-09-23T14:22:44.951Z,15.80
2018-09-23T14:27:51.211Z,15.60
2018-09-23T14:32:56.044Z,15.80
2018-09-23T14:38:03.201Z,15.90
2018-09-23T14:43:07.310Z,15.80
2018-09-23T14:48:12.539Z,16.00
2018-09-23T14:53:16.692Z,16.00
2018-09-23T14:58:21.190Z,15.40
2018-09-23T15:03:25.191Z,15.60
2018-09-23T15:08:32.073Z,15.60
2018-09-23T15:13:36.103Z,15.80
2018-09-23T15:18:40.341Z,15.70
2018-09-23T15:23:45.070Z,15.60
2018-09-23T15:28:48.779Z,15.20
2018-09-23T15:33:52.742Z,14.80
2018-09-23T15:38:57.438Z,14.90
2018-09-23T15:44:01.503Z,14.70
2018-09-23T15:49:05.243Z,14.60
2018-09-23T15:54:21.022Z,14.70
2018-09-23T15:59:25.168Z,14.80
2018-09-23T16:04:32.065Z,14.60
2018-09-23T16:09:37.680Z,14.70
2018-09-23T16:14:41.369Z,14.80
2018-09-23T16:19:45.075Z,14.70
2018-09-23T16:24:52.650Z,14.70
2018-09-23T16:29:56.507Z,14.60
2018-09-23T16:35:00.236Z,14.60
2018-09-23T16:40:04.145Z,14.40
2018-09-23T16:45:09.046Z,14.30
2018-09-23T16:50:12.775Z,14.40
2018-09-23T16:55:20.066Z,14.20
2018-09-23T17:00:25.638Z,14.40
2018-09-23T17:05:31.351Z,14.40
2018-09-23T17:10:37.103Z,14.20
2018-09-23T17:15:40.795Z,14.00
2018-09-23T17:20:44.478Z,13.90
2018-09-23T17:25:53.323Z,13.60
2018-09-23T17:30:57.235Z,13.60
2018-09-23T17:36:00.840Z,12.50
2018-09-23T17:41:04.472Z,12.90
2018-09-23T17:46:08.286Z,13.30
2018-09-23T17:51:13.439Z,13.30
2018-09-23T17:56:17.584Z,13.50
2018-09-23T18:01:21.575Z,13.90
2018-09-23T18:06:25.353Z,13.70
2018-09-23T18:11:30.118Z,13.40
2018-09-23T18:16:34.690Z,13.70
2018-09-23T18:21:38.488Z,13.20
2018-09-23T18:26:42.353Z,13.20
2018-09-23T18:31:47.080Z,13.10
2018-09-23T18:36:50.735Z,12.70
2018-09-23T18:41:59.148Z,12.70
2018-09-23T18:47:03.215Z,12.80
2018-09-23T18:52:06.955Z,12.90
2018-09-23T18:57:10.690Z,12.70
2018-09-23T19:02:14.386Z,12.80
2018-09-23T19:07:18.378Z,12.60
2018-09-23T19:12:22.591Z,11.90
2018-09-23T19:17:26.350Z,12.40
2018-09-23T19:22:37.426Z,12.30
2018-09-23T19:27:41.216Z,12.10
2018-09-23T19:32:45.954Z,11.70
2018-09-23T19:37:50.542Z,11.90
2018-09-23T19:42:54.337Z,12.20
2018-09-23T19:47:58.128Z,12.30
2018-09-23T19:53:02.987Z,11.90
2018-09-23T19:58:09.679Z,11.40
2018-09-23T20:03:13.488Z,11.50
2018-09-23T20:08:19.378Z,11.20
2018-09-23T20:13:23.203Z,10.60
2018-09-23T20:18:29.146Z,10.70
2018-09-23T20:23:34.107Z,10.60
2018-09-23T20:28:39.451Z,10.40
2018-09-23T20:33:45.197Z,10.90
2018-09-23T20:38:51.069Z,10.90
2018-09-23T20:43:54.846Z,11.10
2018-09-23T20:48:58.730Z,10.90
2018-09-23T20:54:03.794Z,11.50
2018-09-23T20:59:07.498Z,11.40
2018-09-23T21:04:14.062Z,11.30
2018-09-23T21:09:18.428Z,11.50
2018-09-23T21:14:22.219Z,11.30
2018-09-23T21:19:26.922Z,11.20
2018-09-23T21:24:33.875Z,11.20
2018-09-23T21:29:42.238Z,11.20
2018-09-23T21:34:50.091Z,11.10
2018-09-23T21:39:53.799Z,11.40
2018-09-23T21:44:57.571Z,11.10
2018-09-23T21:50:01.217Z,11.50
2018-09-23T21:55:05.010Z,11.40
2018-09-23T22:00:11.162Z,11.50
2018-09-23T22:05:19.153Z,11.00
2018-09-23T22:10:22.881Z,11.40
2018-09-23T22:15:27.174Z,11.70
2018-09-23T22:20:32.777Z,11.50
2018-09-23T22:25:36.466Z,11.40
2018-09-23T22:30:42.227Z,11.40
2018-09-23T22:35:46.155Z,10.70
2018-09-23T22:40:49.845Z,10.50
2018-09-23T22:45:54.539Z,10.40
2018-09-23T22:50:58.176Z,10.50
2018-09-23T22:56:01.919Z,10.30
2018-09-23T23:01:05.650Z,10.30
2018-09-23T23:06:09.354Z,10.40
2018-09-23T23:11:13.004Z,10.50
2018-09-23T23:16:16.755Z,10.70
2018-09-23T23:21:20.323Z,10.60
2018-09-23T23:26:23.894Z,10.70
2018-09-23T23:31:27.461Z,11.10
2018-09-23T23:36:32.318Z,10.60
2018-09-23T23:41:35.934Z,10.70
2018-09-23T23:46:39.521Z,11.20
2018-09-23T23:51:43.258Z,11.20
2018-09-23T23:56:46.838Z,11.30
